Time;durP1;ratioP1;P1;durP2;ratioP2;P2;SDS_P1;SDS_P2;PMS_P1;PMS_P2;Temp;Humidity;BMP_temperature;BMP_pressure;BME280_temperature;BME280_humidity;BME280_pressure;Samples;Min_cycle;Max_cycle;Signal;HPM_P1;HPM_P2
2022/02/11 00:01:43;;;;;;;;;;;;;;;7.13;69.83;98884.95;219901;1273;23906;-70
2022/02/11 00:07:03;;;;;;;;;;;;;;;7.07;69.92;98884.30;220758;1274;23521;-70
2022/02/11 00:12:28;;;;;;;;;;;;;;;7.03;70.02;98876.83;220298;1273;22553;-71
2022/02/11 00:17:50;;;;;;;;;;;;;;;6.99;70.12;98875.43;220657;1273;22553;-70
2022/02/11 00:23:39;;;;;;;;;;;;;;;6.98;70.38;98879.41;220527;1274;24266;-69
2022/02/11 01:05:48;;;;;;;;;;;;;;;6.87;71.20;98885.58;219397;1272;22872;-70
2022/02/11 01:11:32;;;;;;;;;;;;;;;;;;;;;
2022/02/11 01:17:35;;;;;;;;;;;;;;;6.82;71.57;98883.52;220084;1274;23963;-70
2022/02/11 01:45:53;;;;;;;;;;;;;;;6.66;72.38;98860.47;219936;1273;22631;-70
2022/02/11 02:21:38;;;;;;;;;;;;;;;6.68;72.43;98843.65;219031;1273;22575;-70
2022/02/11 02:25:22;;;;;;;;;;;;;;;6.66;72.98;98835.02;220006;1273;22660;-69
2022/02/11 02:58:24;;;;;;;;;;;;;;;6.58;73.42;98826.89;219500;1273;22528;-70
2022/02/11 03:49:04;;;;;;;;;;;;;;;6.19;76.30;98831.71;219466;1273;22556;-70
2022/02/11 03:55:48;;;;;;;;;;;;;;;6.13;76.45;98833.05;219735;1274;24272;-70
2022/02/11 05:03:45;;;;;;;;;;;;;;;5.66;78.74;98781.42;220439;1273;25287;-70
2022/02/11 05:09:02;;;;;;;;;;;;;;;5.65;78.81;98773.98;220096;1274;25624;-70
2022/02/11 05:14:21;;;;;;;;;;;;;;;;;;;;;
2022/02/11 05:20:17;;;;;;;;;;;;;;;5.70;79.09;98761.04;219602;1274;22547;-70
2022/02/11 05:26:19;;;;;;;;;;;;;;;5.69;79.17;98757.90;219274;1273;25464;-70
2022/02/11 05:31:29;;;;;;;;;;;;;;;5.68;79.12;98757.09;219358;1273;22704;-70
2022/02/11 05:42:06;;;;;;;;;;;;;;;5.66;79.32;98759.91;219646;1274;22681;-69
2022/02/11 05:47:11;;;;;;;;;;;;;;;5.69;79.54;98759.39;219601;1274;22675;-69
2022/02/11 05:52:27;;;;;;;;;;;;;;;;;;;;;
2022/02/11 05:58:05;;;;;;;;;;;;;;;5.70;79.42;98772.14;219321;1272;25296;-69
2022/02/11 06:03:10;;;;;;;;;;;;;;;5.67;79.52;98777.02;219304;1274;24349;-70
2022/02/11 06:08:15;;;;;;;;;;;;;;;5.64;79.37;98776.63;219348;1274;24310;-70
2022/02/11 06:13:33;;;;;;;;;;;;;;;5.60;79.35;98778.25;220502;1273;23760;-69
2022/02/11 06:18:43;;;;;;;;;;;;;;;5.62;79.74;98773.02;219657;1272;23384;-69
2022/02/11 06:23:56;;;;;;;;;;;;;;;5.65;79.91;98769.58;219530;1274;24422;-69
2022/02/11 06:29:21;;;;;;;;;;;;;;;5.66;79.74;98765.48;219391;1273;24873;-70
2022/02/11 06:34:50;;;;;;;;;;;;;;;5.64;79.78;98762.75;219129;1273;22541;-70
2022/02/11 06:39:58;;;;;;;;;;;;;;;5.64;79.69;98755.48;219367;1274;22522;-71
2022/02/11 06:45:02;;;;;;;;;;;;;;;5.67;79.98;98746.08;218699;1273;22550;-69
2022/02/11 06:50:16;;;;;;;;;;;;;;;5.71;80.11;98743.61;218902;1273;24510;-70
2022/02/11 06:55:44;;;;;;;;;;;;;;;5.73;80.03;98742.52;220844;1273;22592;-69
2022/02/11 07:01:06;;;;;;;;;;;;;;;5.77;80.11;98743.22;219038;1274;24851;-69
2022/02/11 07:06:45;;;;;;;;;;;;;;;5.82;79.72;98759.46;218902;1273;23437;-69
2022/02/11 07:12:31;;;;;;;;;;;;;;;;;;;;;
2022/02/11 07:18:04;;;;;;;;;;;;;;;5.79;79.13;98761.41;219984;1277;26003;-69
2022/02/11 07:23:36;;;;;;;;;;;;;;;5.85;79.18;98752.83;218384;1277;22541;-68
2022/02/11 07:29:16;;;;;;;;;;;;;;;5.88;78.92;98754.23;218226;1279;22723;-67
2022/02/11 07:34:36;;;;;;;;;;;;;;;5.88;78.81;98748.80;218652;1276;22651;-67
2022/02/11 07:41:16;;;;;;;;;;;;;;;5.94;78.87;98740.65;218206;1277;22565;-67
2022/02/11 07:47:05;;;;;;;;;;;;;;;;;;;;;
2022/02/11 07:58:10;;;;;;;;;;;;;;;6.12;78.43;98744.43;218298;1277;25909;-67
2022/02/11 08:03:26;;;;;;;;;;;;;;;6.14;78.40;98738.11;218055;1277;24370;-68
2022/02/11 08:09:00;;;;;;;;;;;;;;;6.22;78.30;98742.08;218183;1278;24381;-67
2022/02/11 08:14:17;;;;;;;;;;;;;;;6.29;78.23;98737.65;218114;1276;25250;-68
2022/02/11 08:19:22;;;;;;;;;;;;;;;6.26;77.54;98739.81;218188;1277;22566;-68
2022/02/11 08:24:39;;;;;;;;;;;;;;;6.18;77.18;98738.30;218151;1276;22573;-68
2022/02/11 08:29:57;;;;;;;;;;;;;;;6.12;77.02;98743.54;217777;1279;24246;-68
2022/02/11 08:35:19;;;;;;;;;;;;;;;6.04;77.02;98748.48;218138;1277;22567;-68
2022/02/11 08:40:24;;;;;;;;;;;;;;;6.02;77.39;98739.88;218273;1277;24928;-68
2022/02/11 08:45:31;;;;;;;;;;;;;;;6.07;77.06;98735.15;218434;1276;25436;-67
2022/02/11 08:50:37;;;;;;;;;;;;;;;6.12;77.26;98731.88;218186;1276;24158;-68
2022/02/11 08:56:44;;;;;;;;;;;;;;;6.20;77.23;98744.85;218231;1276;22693;-69
2022/02/11 09:03:06;;;;;;;;;;;;;;;;;;;;;
2022/02/11 09:09:13;;;;;;;;;;;;;;;6.34;77.04;98734.84;218962;1276;24291;-69
2022/02/11 09:14:40;;;;;;;;;;;;;;;;;;;;;
2022/02/11 09:19:52;;;;;;;;;;;;;;;6.54;77.05;98724.67;218379;1276;22544;-68
2022/02/11 09:24:56;;;;;;;;;;;;;;;6.60;76.76;98734.96;218379;1276;22556;-68
2022/02/11 09:30:05;;;;;;;;;;;;;;;6.60;76.79;98733.20;218268;1276;22556;-69
2022/02/11 09:35:27;;;;;;;;;;;;;;;6.60;76.41;98723.88;218241;1276;22541;-69
2022/02/11 09:41:00;;;;;;;;;;;;;;;6.60;76.49;98720.52;218155;1278;22543;-68
2022/02/11 09:46:16;;;;;;;;;;;;;;;;;;;;;
2022/02/11 09:51:20;;;;;;;;;;;;;;;6.69;75.70;98729.38;218301;1276;24259;-68
2022/02/11 09:57:01;;;;;;;;;;;;;;;6.70;75.18;98729.17;219657;1278;22773;-69
2022/02/11 10:02:26;;;;;;;;;;;;;;;6.73;75.00;98716.45;218573;1278;22555;-69
2022/02/11 10:07:27;;;;;;;;;;;;;;;6.83;74.76;98716.58;218276;1277;22541;-68
2022/02/11 10:12:33;;;;;;;;;;;;;;;7.04;74.40;98725.59;218475;1278;22534;-69
2022/02/11 10:17:39;;;;;;;;;;;;;;;7.25;73.70;98713.81;218523;1278;22695;-69
2022/02/11 10:23:31;;;;;;;;;;;;;;;7.40;73.57;98703.73;218565;1276;24269;-69
2022/02/11 10:29:15;;;;;;;;;;;;;;;7.48;72.94;98699.51;220017;1277;25939;-69
2022/02/11 10:34:42;;;;;;;;;;;;;;;7.50;72.30;98693.90;218102;1277;22651;-69
2022/02/11 10:39:57;;;;;;;;;;;;;;;7.48;71.81;98686.66;218457;1277;22523;-68
2022/02/11 10:45:47;;;;;;;;;;;;;;;7.47;71.28;98692.79;218602;1277;24217;-68
2022/02/11 10:50:55;;;;;;;;;;;;;;;7.47;70.53;98696.04;218081;1277;22662;-69
2022/02/11 10:56:19;;;;;;;;;;;;;;;7.48;71.30;98699.14;219833;1277;22604;-69
2022/02/11 11:01:57;;;;;;;;;;;;;;;;;;;;;
2022/02/11 11:07:42;;;;;;;;;;;;;;;7.46;70.18;98688.48;218230;1278;309797;-72
2022/02/11 11:13:00;;;;;;;;;;;;;;;7.45;70.20;98691.98;218693;1278;22531;-69
2022/02/11 11:18:15;;;;;;;;;;;;;;;7.45;69.69;98695.61;218231;1281;22557;-69
2022/02/11 11:24:24;;;;;;;;;;;;;;;;;;;;;
2022/02/11 11:29:50;;;;;;;;;;;;;;;7.48;68.75;98697.73;218936;1284;25440;-69
2022/02/11 11:35:35;;;;;;;;;;;;;;;7.38;68.82;98709.70;217814;1281;22606;-70
2022/02/11 11:41:35;;;;;;;;;;;;;;;7.36;68.90;98706.30;217701;1281;22562;-70
2022/02/11 11:47:20;;;;;;;;;;;;;;;7.33;68.44;98717.75;217991;1281;22577;-69
2022/02/11 11:53:23;;;;;;;;;;;;;;;;;;;;;
2022/02/11 12:12:09;;;;;;;;;;;;;;;6.95;71.78;98756.64;218222;1277;22566;-68
2022/02/11 12:18:47;;;;;;;;;;;;;;;6.54;72.83;98780.09;218490;1277;22582;-68
2022/02/11 12:31:12;;;;;;;;;;;;;;;;;;;;;
2022/02/11 12:37:47;;;;;;;;;;;;;;;;;;;;;
2022/02/11 12:49:52;;;;;;;;;;;;;;;4.11;79.30;98871.37;217365;1281;25378;-69
2022/02/11 12:55:37;;;;;;;;;;;;;;;3.69;80.23;98889.13;218226;1277;22533;-68
2022/02/11 13:06:56;;;;;;;;;;;;;;;2.97;81.82;98929.95;218052;1277;24262;-71
2022/02/11 13:12:23;;;;;;;;;;;;;;;2.74;82.46;98953.70;218019;1277;24837;-68
2022/02/11 13:18:17;;;;;;;;;;;;;;;2.54;82.73;98964.94;218460;1277;25289;-68
2022/02/11 13:30:13;;;;;;;;;;;;;;;;;;;;;
2022/02/11 13:36:20;;;;;;;;;;;;;;;2.04;82.91;99028.84;218084;1277;25283;-68
2022/02/11 13:42:32;;;;;;;;;;;;;;;1.88;83.41;99044.34;218167;1277;22609;-68
2022/02/11 13:48:37;;;;;;;;;;;;;;;;;;;;;
2022/02/11 14:00:37;;;;;;;;;;;;;;;1.80;84.01;99113.57;218494;1277;22538;-68
2022/02/11 14:06:13;;;;;;;;;;;;;;;1.81;83.87;99129.23;218157;1277;22541;-68
2022/02/11 14:12:05;;;;;;;;;;;;;;;1.81;83.92;99140.21;218264;1277;24235;-68
2022/02/11 14:17:35;;;;;;;;;;;;;;;1.81;83.83;99144.02;218273;1277;25490;-67
2022/02/11 14:23:28;;;;;;;;;;;;;;;1.84;83.85;99153.55;217903;1277;25429;-68
2022/02/11 14:28:53;;;;;;;;;;;;;;;1.91;83.99;99155.14;218097;1277;22559;-68
2022/02/11 14:35:04;;;;;;;;;;;;;;;2.05;83.80;99176.40;218019;1277;22596;-67
2022/02/11 14:47:23;;;;;;;;;;;;;;;2.05;83.26;99213.02;218268;1277;25359;-68
2022/02/11 14:59:11;;;;;;;;;;;;;;;2.08;83.20;99226.37;218539;1277;23112;-70
2022/02/11 15:04:20;;;;;;;;;;;;;;;2.05;83.08;99237.59;218190;1277;25253;-69
2022/02/11 15:09:58;;;;;;;;;;;;;;;;;;;;;
2022/02/11 15:15:36;;;;;;;;;;;;;;;;;;;;;
2022/02/11 15:21:23;;;;;;;;;;;;;;;1.85;82.85;99279.15;219397;1279;22559;-70
2022/02/11 15:26:57;;;;;;;;;;;;;;;1.84;82.83;99288.98;218902;1279;24217;-70
2022/02/11 15:33:06;;;;;;;;;;;;;;;1.77;82.59;99293.36;219562;1279;22706;-70
2022/02/11 15:38:18;;;;;;;;;;;;;;;1.68;82.69;99297.35;219537;1279;22541;-71
2022/02/11 15:44:13;;;;;;;;;;;;;;;1.65;82.87;99307.29;218649;1279;24373;-69
2022/02/11 15:49:48;;;;;;;;;;;;;;;;;;;;;
2022/02/11 15:55:09;;;;;;;;;;;;;;;1.62;83.17;99326.67;218723;1277;23112;-70
2022/02/11 16:00:44;;;;;;;;;;;;;;;1.61;83.19;99325.84;219544;1278;22606;-70
2022/02/11 16:06:08;;;;;;;;;;;;;;;1.60;83.39;99337.75;219275;1281;22573;-71
2022/02/11 16:11:58;;;;;;;;;;;;;;;1.61;83.30;99346.17;218741;1277;22717;-69
2022/02/11 16:18:23;;;;;;;;;;;;;;;1.64;83.37;99346.43;219505;1277;23039;-69
2022/02/11 16:23:29;;;;;;;;;;;;;;;;;;;;;
2022/02/11 16:29:00;;;;;;;;;;;;;;;1.47;82.87;99353.66;218598;1277;22842;-69
2022/02/11 16:34:50;;;;;;;;;;;;;;;;;;;;;
2022/02/11 16:41:06;;;;;;;;;;;;;;;1.20;82.96;99382.21;218492;1278;22560;-71
2022/02/11 16:53:05;;;;;;;;;;;;;;;1.06;83.29;99403.08;219318;1281;25260;-70
2022/02/11 16:58:47;;;;;;;;;;;;;;;1.05;83.22;99404.51;219598;1279;22741;-69
2022/02/11 17:10:12;;;;;;;;;;;;;;;;;;;;;
2022/02/11 17:16:00;;;;;;;;;;;;;;;;;;;;;
2022/02/11 17:28:00;;;;;;;;;;;;;;;1.18;83.26;99410.45;219635;1279;23320;-70
2022/02/11 17:40:18;;;;;;;;;;;;;;;1.30;82.88;99438.09;218662;1279;22699;-70
2022/02/11 17:46:33;;;;;;;;;;;;;;;;;;;;;
2022/02/11 17:52:49;;;;;;;;;;;;;;;1.45;82.76;99458.15;219555;1277;22591;-71
2022/02/11 17:58:34;;;;;;;;;;;;;;;;;;;;;
2022/02/11 18:04:18;;;;;;;;;;;;;;;;;;;;;
2022/02/11 18:09:52;;;;;;;;;;;;;;;;;;;;;
2022/02/11 18:21:12;;;;;;;;;;;;;;;1.68;81.84;99500.33;219706;1277;25258;-70
2022/02/11 18:26:46;;;;;;;;;;;;;;;1.72;82.04;99510.98;219488;1277;22550;-70
2022/02/11 18:32:59;;;;;;;;;;;;;;;1.80;82.10;99528.17;218656;1277;22609;-70
2022/02/11 18:38:46;;;;;;;;;;;;;;;;;;;;;
2022/02/11 18:44:14;;;;;;;;;;;;;;;;;;;;;
2022/02/11 18:50:15;;;;;;;;;;;;;;;1.73;81.45;99540.96;219611;1277;22535;-70
2022/02/11 18:56:26;;;;;;;;;;;;;;;1.67;81.77;99543.48;219635;1277;24327;-69
2022/02/11 19:02:34;;;;;;;;;;;;;;;;;;;;;
2022/02/11 19:08:39;;;;;;;;;;;;;;;1.58;81.54;99558.73;218809;1277;22668;-70
2022/02/11 19:14:46;;;;;;;;;;;;;;;1.56;82.06;99559.83;218819;1277;25365;-70
2022/02/11 19:20:40;;;;;;;;;;;;;;;1.49;81.93;99564.73;218807;1277;23951;-70
2022/02/11 19:31:52;;;;;;;;;;;;;;;1.36;82.20;99570.79;218734;1278;24233;-70
2022/02/11 19:43:54;;;;;;;;;;;;;;;0.96;82.53;99575.06;218647;1278;22613;-71
2022/02/11 19:49:55;;;;;;;;;;;;;;;;;;;;;
2022/02/11 20:03:05;;;;;;;;;;;;;;;;;;;;;
2022/02/11 20:09:27;;;;;;;;;;;;;;;0.21;84.07;99617.50;217893;1281;22707;-70
2022/02/11 20:21:16;;;;;;;;;;;;;;;0.18;84.79;99649.41;219058;1278;25981;-71
2022/02/11 20:27:24;;;;;;;;;;;;;;;;;;;;;
2022/02/11 20:39:21;;;;;;;;;;;;;;;0.49;85.25;99655.36;219495;1277;25461;-70
2022/02/11 20:45:23;;;;;;;;;;;;;;;;;;;;;
2022/02/11 20:51:20;;;;;;;;;;;;;;;0.70;85.18;99682.11;218796;1278;22585;-70
2022/02/11 20:56:37;;;;;;;;;;;;;;;0.74;85.21;99676.28;218714;1278;22966;-70
2022/02/11 21:02:04;;;;;;;;;;;;;;;0.78;85.25;99679.16;218705;1277;22948;-70
2022/02/11 21:07:40;;;;;;;;;;;;;;;0.74;85.14;99683.84;218769;1278;22597;-70
2022/02/11 21:13:13;;;;;;;;;;;;;;;0.71;85.49;99692.59;218893;1278;22528;-69
2022/02/11 21:19:09;;;;;;;;;;;;;;;0.87;86.46;99693.02;218636;1279;22671;-70
2022/02/11 21:24:59;;;;;;;;;;;;;;;0.97;86.05;99701.30;218726;1278;22553;-69
2022/02/11 21:30:18;;;;;;;;;;;;;;;0.93;85.62;99709.13;218800;1278;25533;-71
2022/02/11 21:41:34;;;;;;;;;;;;;;;0.82;85.35;99719.55;218506;1277;25405;-70
2022/02/11 21:47:01;;;;;;;;;;;;;;;0.83;85.73;99726.58;219575;1279;22550;-70
2022/02/11 21:53:07;;;;;;;;;;;;;;;0.91;85.73;99733.73;218724;1278;23845;-69
2022/02/11 22:05:14;;;;;;;;;;;;;;;0.97;85.39;99745.30;218704;1279;22551;-70
2022/02/11 22:10:45;;;;;;;;;;;;;;;1.01;85.70;99743.52;218614;1278;25512;-70
2022/02/11 22:16:36;;;;;;;;;;;;;;;1.02;85.64;99753.15;218734;1279;25821;-70
2022/02/11 22:22:27;;;;;;;;;;;;;;;1.04;85.50;99771.91;219510;1279;22539;-70
2022/02/11 22:28:16;;;;;;;;;;;;;;;1.08;85.60;99778.48;219680;1279;22534;-70
2022/02/11 22:33:54;;;;;;;;;;;;;;;1.08;85.45;99784.09;218728;1279;24253;-69
2022/02/11 22:39:59;;;;;;;;;;;;;;;1.08;85.25;99791.44;218864;1277;22537;-71
2022/02/11 22:46:30;;;;;;;;;;;;;;;1.03;85.33;99801.77;219686;1278;24253;-69
2022/02/11 22:57:48;;;;;;;;;;;;;;;0.73;85.20;99812.41;218712;1277;22680;-69
2022/02/11 23:03:34;;;;;;;;;;;;;;;0.54;85.61;99820.30;218631;1278;22530;-71
2022/02/11 23:09:36;;;;;;;;;;;;;;;;;;;;;
2022/02/11 23:15:27;;;;;;;;;;;;;;;0.34;85.74;99835.73;219628;1278;22534;-70
2022/02/11 23:21:06;;;;;;;;;;;;;;;0.31;86.48;99843.27;219469;1278;22563;-70
2022/02/11 23:26:37;;;;;;;;;;;;;;;0.39;86.17;99847.98;219721;1278;25520;-70
2022/02/11 23:32:14;;;;;;;;;;;;;;;0.43;86.35;99850.31;218590;1278;22944;-70
2022/02/11 23:38:09;;;;;;;;;;;;;;;;;;;;;
2022/02/11 23:44:11;;;;;;;;;;;;;;;0.63;86.63;99869.59;219667;1278;25317;-69
2022/02/11 23:50:02;;;;;;;;;;;;;;;0.74;86.40;99870.45;219181;1277;24272;-72
2022/02/11 23:55:45;;;;;;;;;;;;;;;;;;;;;
